Time;durP1;ratioP1;P1;durP2;ratioP2;P2;SDS_P1;SDS_P2;PMS_P1;PMS_P2;Temp;Humidity;BMP_temperature;BMP_pressure;BME280_temperature;BME280_humidity;BME280_pressure;Samples;Min_cycle;Max_cycle;Signal;HPM_P1;HPM_P2
2023/02/13 00:00:25;;;;;;;26.40;12.93;;;6.70;99.90;;;7.32;100.00;100143.03;5005359;28;20493;-80
2023/02/13 00:02:56;;;;;;;22.73;12.87;;;6.70;99.90;;;7.33;100.00;100148.09;5005574;28;20492;-79
2023/02/13 00:05:26;;;;;;;27.30;13.07;;;6.80;99.90;;;7.34;100.00;100141.13;5002324;28;20476;-79
2023/02/13 00:07:57;;;;;;;27.13;13.80;;;6.80;99.90;;;7.34;100.00;100135.91;5001574;28;20487;-79
2023/02/13 00:10:27;;;;;;;26.37;13.10;;;6.80;99.90;;;7.35;100.00;100135.81;5005913;28;20463;-79
2023/02/13 00:12:58;;;;;;;21.47;12.07;;;6.80;99.90;;;7.33;100.00;100134.25;5005271;28;20470;-80
2023/02/13 00:15:27;;;;;;;20.33;12.30;;;6.70;99.90;;;7.33;100.00;100140.28;5005694;28;20497;-79
2023/02/13 00:17:58;;;;;;;21.47;11.43;;;6.70;99.90;;;7.35;100.00;100135.81;5004894;28;20524;-79
2023/02/13 00:20:29;;;;;;;20.67;12.10;;;6.70;99.90;;;7.36;100.00;100139.22;5006219;28;20517;-79
2023/02/13 00:22:59;;;;;;;22.77;12.20;;;6.70;99.90;;;7.37;100.00;100135.69;5005259;28;20463;-79
2023/02/13 00:25:30;;;;;;;23.90;12.63;;;6.70;99.90;;;7.33;100.00;100132.47;5004815;28;20463;-79
2023/02/13 00:27:59;;;;;;;26.73;12.03;;;6.70;99.90;;;7.35;100.00;100127.19;5005133;28;20523;-79
2023/02/13 00:30:31;;;;;;;25.30;12.67;;;6.80;99.90;;;7.28;100.00;100129.41;5005949;28;20463;-80
2023/02/13 00:33:01;;;;;;;22.33;11.07;;;6.80;99.90;;;7.27;100.00;100124.31;5004147;28;20470;-80
2023/02/13 00:35:32;;;;;;;19.90;11.87;;;6.80;99.90;;;7.27;100.00;100119.94;5004431;28;20479;-79
2023/02/13 00:38:01;;;;;;;21.70;11.80;;;6.70;99.90;;;7.27;100.00;100119.09;5006611;28;20460;-79
2023/02/13 00:40:34;;;;;;;26.70;14.13;;;6.70;99.90;;;7.25;100.00;100121.84;5005505;28;20462;-80
2023/02/13 00:43:04;;;;;;;22.00;11.47;;;6.80;99.90;;;7.23;100.00;100115.91;5005071;28;20467;-79
2023/02/13 00:45:34;;;;;;;20.60;11.97;;;6.80;99.90;;;7.21;100.00;100115.19;5003466;28;20508;-80
2023/02/13 00:48:05;;;;;;;18.63;10.20;;;6.80;99.90;;;7.18;100.00;100123.22;5004372;28;21227;-79
2023/02/13 00:50:36;;;;;;;20.87;10.70;;;6.70;99.90;;;7.16;100.00;100121.66;5005160;28;20569;-79
2023/02/13 00:53:06;;;;;;;19.80;10.90;;;6.70;99.90;;;7.16;100.00;100121.66;5004682;28;20464;-79
2023/02/13 00:55:36;;;;;;;19.97;10.47;;;6.70;99.90;;;7.16;100.00;100112.09;5003845;28;20466;-79
2023/02/13 00:58:05;;;;;;;19.27;10.77;;;6.70;99.90;;;7.17;100.00;100123.34;5004828;28;20462;-79
2023/02/13 01:00:35;;;;;;;19.03;11.50;;;6.70;99.90;;;7.16;100.00;100114.69;5004424;28;20962;-79
2023/02/13 01:03:05;;;;;;;18.30;10.30;;;6.60;99.90;;;7.18;100.00;100115.44;5004910;28;20466;-79
2023/02/13 01:05:36;;;;;;;19.20;11.10;;;6.70;99.90;;;7.14;100.00;100119.19;5003838;28;20462;-79
2023/02/13 01:08:05;;;;;;;23.10;11.60;;;6.70;99.90;;;7.11;100.00;100116.81;5004390;28;20570;-79
2023/02/13 01:10:34;;;;;;;22.37;11.20;;;6.60;99.90;;;7.12;100.00;100122.84;5004321;28;20486;-79
2023/02/13 01:13:04;;;;;;;19.97;10.47;;;6.50;99.90;;;7.14;100.00;100120.97;5004565;28;20553;-79
2023/02/13 01:15:34;;;;;;;21.20;12.23;;;6.50;99.90;;;7.14;100.00;100123.56;5005062;28;20869;-80
2023/02/13 01:18:04;;;;;;;17.97;10.20;;;6.50;99.90;;;7.15;100.00;100115.63;5004581;28;20981;-79
2023/02/13 01:20:35;;;;;;;19.90;10.80;;;6.60;99.90;;;7.16;100.00;100124.28;5005329;28;20517;-80
2023/02/13 01:23:06;;;;;;;23.10;11.70;;;6.60;99.90;;;7.16;100.00;100126.88;5005019;28;20987;-79
2023/02/13 01:25:35;;;;;;;21.53;10.93;;;6.50;99.90;;;7.14;100.00;100121.81;5004007;28;20545;-79
2023/02/13 01:28:05;;;;;;;17.37;10.97;;;6.50;99.90;;;7.13;100.00;100127.94;5004551;28;20546;-79
2023/02/13 01:30:35;;;;;;;21.37;10.37;;;6.50;99.90;;;7.10;100.00;100122.97;5008828;28;20471;-79
2023/02/13 01:33:05;;;;;;;18.13;10.10;;;6.40;99.90;;;7.13;100.00;100127.94;5008966;28;20454;-79
2023/02/13 01:35:39;;;;;;;18.73;11.10;;;6.50;99.90;;;7.12;100.00;100128.88;5008054;28;20896;-80
2023/02/13 01:38:09;;;;;;;21.50;12.20;;;6.50;99.90;;;7.08;100.00;100130.88;5008516;28;20507;-79
2023/02/13 01:40:47;;;;;;;17.73;10.23;;;6.50;99.90;;;7.04;100.00;100128.63;5008191;28;20469;-80
2023/02/13 01:43:17;;;;;;;19.13;10.77;;;6.50;99.90;;;7.06;100.00;100126.72;5008541;28;20573;-79
2023/02/13 01:45:54;;;;;;;16.37;10.07;;;6.40;99.90;;;7.09;100.00;100129.09;5007487;28;20503;-79
2023/02/13 01:48:27;;;;;;;21.17;10.60;;;6.50;99.90;;;7.10;100.00;100130.78;5007809;28;20552;-79
2023/02/13 01:51:05;;;;;;;19.27;11.20;;;6.40;99.90;;;7.10;100.00;100128.16;5008451;28;20486;-79
2023/02/13 01:53:41;;;;;;;17.97;9.77;;;6.50;99.90;;;7.08;100.00;100130.03;5007614;28;20532;-79
2023/02/13 01:56:20;;;;;;;21.43;12.07;;;6.40;99.90;;;7.12;100.00;100122.84;5008243;28;20466;-79
2023/02/13 01:58:54;;;;;;;18.70;9.17;;;6.50;99.90;;;7.08;100.00;100124.84;5006830;28;20463;-79
2023/02/13 02:01:27;;;;;;;20.20;10.97;;;6.50;99.90;;;7.06;100.00;100122.38;5007621;28;20614;-79
2023/02/13 02:04:04;;;;;;;16.80;10.10;;;6.50;99.90;;;7.08;100.00;100120.47;5008335;28;20470;-79
2023/02/13 02:06:40;;;;;;;19.30;9.80;;;6.60;99.90;;;7.03;100.00;100116.56;5008082;28;20985;-79
2023/02/13 02:09:16;;;;;;;29.73;11.60;;;6.50;99.90;;;6.99;100.00;100123.75;5009006;28;20499;-79
2023/02/13 02:11:55;;;;;;;17.70;9.70;;;6.40;99.90;;;7.01;100.00;100121.06;5007244;28;20502;-79
2023/02/13 02:14:26;;;;;;;16.63;9.73;;;6.50;99.90;;;6.99;100.00;100126.34;5007898;28;20466;-79
2023/02/13 02:16:56;;;;;;;17.70;10.60;;;6.50;99.90;;;6.96;100.00;100125.75;5006811;28;20467;-79
2023/02/13 02:19:39;;;;;;;16.53;9.50;;;6.40;99.90;;;6.96;100.00;100120.56;5007155;28;20542;-79
2023/02/13 02:22:44;;;;;;;17.70;9.70;;;6.40;99.90;;;6.94;100.00;100122.44;5006604;28;20976;-79
2023/02/13 02:26:12;;;;;;;17.87;9.70;;;6.30;99.90;;;6.94;100.00;100112.84;5008120;28;20473;-79
2023/02/13 02:29:24;;;;;;;20.77;10.20;;;6.30;99.90;;;6.97;100.00;100109.22;4992971;28;20502;-80
2023/02/13 02:32:27;;;;;;;17.27;10.13;;;6.40;99.90;;;6.89;100.00;100104.56;5007599;28;21001;-79
2023/02/13 02:35:15;;;;;;;17.13;9.50;;;6.40;99.90;;;6.88;100.00;100107.28;5007090;28;20459;-79
2023/02/13 02:38:03;;;;;;;15.43;9.33;;;6.40;99.90;;;6.83;100.00;100102.44;5007689;28;20506;-79
2023/02/13 02:40:51;;;;;;;14.50;8.50;;;6.40;99.90;;;6.80;100.00;100099.22;5006512;28;20874;-79
2023/02/13 02:43:52;;;;;;;20.63;9.97;;;6.40;99.90;;;6.80;100.00;100105.25;5007789;28;20476;-79
2023/02/13 02:46:34;;;;;;;17.30;10.13;;;6.30;99.90;;;6.81;100.00;100100.84;5006347;28;20458;-79
2023/02/13 02:52:09;;;;;;;18.37;10.50;;;6.20;99.90;;;6.84;100.00;100095.44;5007232;28;20521;-79
2023/02/13 02:55:06;;;;;;;19.13;10.27;;;6.20;99.90;;;6.83;100.00;100099.84;5006756;28;20466;-79
2023/02/13 03:06:26;;;;;;;17.87;9.90;;;6.30;99.90;;;6.82;100.00;100107.72;5006287;28;20466;-79
2023/02/13 03:14:48;;;;;;;20.90;10.30;;;6.20;99.90;;;6.80;100.00;100099.22;5005999;28;20828;-80
2023/02/13 03:23:26;;;;;;;19.57;10.43;;;6.30;99.90;;;6.74;100.00;100104.84;5006103;28;20471;-80
2023/02/13 03:26:49;;;;;;;24.93;10.90;;;6.20;99.90;;;6.76;100.00;100105.59;5004328;28;20870;-79
2023/02/13 03:32:39;;;;;;;17.20;10.80;;;6.20;99.90;;;6.71;100.00;100105.06;5007897;28;20505;-79
2023/02/13 03:38:28;;;;;;;26.67;11.27;;;6.10;99.90;;;6.69;100.00;100107.81;5005240;28;20463;-79
2023/02/13 03:44:13;;;;;;;20.77;11.10;;;6.00;99.90;;;6.69;100.00;100117.38;4998142;28;20509;-79
2023/02/13 03:46:48;;;;;;;19.10;11.73;;;6.20;99.90;;;6.62;100.00;100111.78;5005385;28;20463;-79
2023/02/13 03:52:19;;;;;;;17.40;10.60;;;6.20;99.90;;;6.59;100.00;100115.41;5005480;28;20475;-79
2023/02/13 04:00:40;;;;;;;20.40;10.87;;;6.00;99.90;;;6.57;100.00;100122.50;5005448;28;20920;-79
2023/02/13 04:03:19;;;;;;;16.40;10.07;;;6.00;99.90;;;6.57;100.00;100119.91;5005374;28;20466;-79
2023/02/13 04:05:56;;;;;;;18.73;9.87;;;5.90;99.90;;;6.57;100.00;100125.09;5006042;28;20459;-79
2023/02/13 04:08:26;;;;;;;16.97;10.03;;;5.90;99.90;;;6.55;100.00;100128.75;5004519;28;20458;-80
2023/02/13 04:11:07;;;;;;;17.80;10.67;;;5.90;99.90;;;6.58;100.00;100131.13;5001885;28;20516;-79
2023/02/13 04:13:47;;;;;;;19.77;10.90;;;6.00;99.90;;;6.51;100.00;100128.16;5001550;28;20463;-79
2023/02/13 04:16:24;;;;;;;13.60;9.33;;;6.00;99.90;;;6.47;100.00;100126.72;4998326;28;21450;-80
2023/02/13 04:18:54;;;;;;;19.00;9.93;;;6.00;99.90;;;6.42;100.00;100125.38;5003653;28;20585;-80
2023/02/13 04:21:25;;;;;;;18.50;10.27;;;5.80;99.90;;;6.42;100.00;100130.59;5000078;28;20470;-80
2023/02/13 04:23:55;;;;;;;17.07;9.97;;;5.80;99.90;;;6.45;100.00;100127.75;5004861;28;20557;-80
2023/02/13 04:26:35;;;;;;;16.70;10.30;;;5.80;99.90;;;6.46;100.00;100132.84;5003472;28;20472;-80
2023/02/13 04:29:05;;;;;;;16.07;10.00;;;5.90;99.90;;;6.45;100.00;100123.41;5001712;28;20458;-80
2023/02/13 04:31:35;;;;;;;20.33;10.63;;;5.90;99.90;;;6.45;100.00;100131.19;5003115;28;20467;-80
2023/02/13 04:34:05;;;;;;;20.10;10.20;;;5.90;99.90;;;6.45;100.00;100125.16;5004366;28;21054;-80
2023/02/13 04:36:36;;;;;;;17.57;9.97;;;5.90;99.90;;;6.44;100.00;100129.53;5004235;28;20977;-80
2023/02/13 04:39:05;;;;;;;17.30;9.70;;;5.90;99.90;;;6.41;100.00;100119.34;5005507;28;21013;-80
2023/02/13 04:41:37;;;;;;;17.73;10.47;;;5.80;99.90;;;6.44;100.00;100124.34;5003750;28;21051;-80
2023/02/13 04:44:07;;;;;;;19.67;9.60;;;5.80;99.90;;;6.43;100.00;100117.47;5003697;28;20555;-80
2023/02/13 04:46:37;;;;;;;21.20;11.40;;;5.80;99.90;;;6.45;100.00;100115.59;5004660;28;20469;-81
2023/02/13 04:49:08;;;;;;;15.73;10.17;;;5.80;99.90;;;6.47;100.00;100116.31;5005002;28;20528;-80
2023/02/13 04:51:38;;;;;;;17.00;10.37;;;5.80;99.90;;;6.46;100.00;100112.03;5001686;28;20481;-80
2023/02/13 04:54:10;;;;;;;24.13;9.97;;;5.80;99.90;;;6.44;100.00;100118.31;5004669;28;20871;-79
2023/02/13 04:56:42;;;;;;;17.50;10.30;;;5.80;99.90;;;6.43;100.00;100114.88;5002424;28;21209;-80
2023/02/13 04:59:13;;;;;;;17.17;10.27;;;5.80;99.90;;;6.39;100.00;100116.03;5004608;28;20470;-79
2023/02/13 05:01:43;;;;;;;15.47;9.77;;;5.80;99.90;;;6.40;100.00;100115.09;5004292;28;20471;-80
2023/02/13 05:04:15;;;;;;;18.43;10.20;;;5.80;99.90;;;6.39;100.00;100110.00;5004125;28;20473;-80
2023/02/13 05:06:44;;;;;;;17.00;11.00;;;5.80;99.90;;;6.33;100.00;100116.47;5003333;28;20471;-80
2023/02/13 05:09:14;;;;;;;14.70;9.23;;;5.70;99.90;;;6.27;100.00;100106.50;5004836;28;20867;-80
2023/02/13 05:11:46;;;;;;;16.73;9.53;;;5.70;99.90;;;6.23;100.00;100110.25;4994672;28;20502;-79
2023/02/13 05:14:16;;;;;;;16.77;9.30;;;5.70;99.90;;;6.17;100.00;100100.31;4989206;28;20466;-80
2023/02/13 05:16:48;;;;;;;12.40;8.90;;;5.60;99.90;;;6.14;100.00;100100.53;4987870;28;20981;-80
2023/02/13 05:19:19;;;;;;;13.97;8.43;;;5.50;99.90;;;6.18;100.00;100106.34;4990674;28;20549;-75
2023/02/13 05:24:37;;;;;;;16.30;9.27;;;5.50;99.90;;;6.22;100.00;100107.75;5004568;28;20466;-80
2023/02/13 05:27:08;;;;;;;14.77;9.50;;;5.50;99.90;;;6.24;100.00;100111.94;5005234;28;20517;-80
2023/02/13 05:29:38;;;;;;;18.53;10.07;;;5.60;99.90;;;6.26;100.00;100112.63;5002999;28;20483;-80
2023/02/13 05:32:07;;;;;;;16.83;9.40;;;5.60;99.90;;;6.21;100.00;100106.97;5003863;28;20463;-80
2023/02/13 05:34:38;;;;;;;17.63;9.50;;;5.50;99.90;;;6.14;100.00;100110.94;5003008;28;20503;-80
2023/02/13 05:37:07;;;;;;;15.40;9.47;;;5.50;99.90;;;6.10;100.00;100116.44;5003073;28;21178;-80
2023/02/13 05:39:36;;;;;;;24.07;10.43;;;5.50;99.90;;;6.10;100.00;100109.47;5004567;28;20481;-80
2023/02/13 05:42:07;;;;;;;16.90;9.23;;;5.40;99.90;;;6.11;100.00;100105.91;5002800;28;20561;-80
2023/02/13 05:44:37;;;;;;;18.63;10.17;;;5.50;99.90;;;6.06;100.00;100108.88;5004195;28;20726;-80
2023/02/13 05:47:06;;;;;;;16.93;10.43;;;5.50;99.90;;;6.04;100.00;100110.72;5003326;28;20470;-77
2023/02/13 05:49:37;;;;;;;15.17;9.07;;;5.40;99.90;;;6.03;100.00;100108.25;5003690;28;20574;-80
2023/02/13 05:52:06;;;;;;;16.20;9.97;;;5.40;99.90;;;6.04;100.00;100112.47;5002796;28;20616;-80
2023/02/13 05:54:37;;;;;;;18.20;10.00;;;5.40;99.90;;;6.09;100.00;100110.41;5004634;28;20466;-80
2023/02/13 05:57:08;;;;;;;17.97;10.83;;;5.40;99.90;;;6.11;100.00;100110.31;5003215;28;20474;-80
2023/02/13 05:59:39;;;;;;;17.60;9.70;;;5.40;99.90;;;6.12;100.00;100110.19;5004015;28;20549;-80
2023/02/13 06:02:08;;;;;;;25.07;10.87;;;5.40;99.90;;;6.12;100.00;100104.16;5002626;28;20472;-79
2023/02/13 06:04:40;;;;;;;88.50;40.17;;;5.50;99.90;;;6.07;100.00;100101.91;5003747;28;20466;-79
2023/02/13 06:07:09;;;;;;;25.80;12.77;;;5.40;99.90;;;6.10;100.00;100093.06;5002133;28;21464;-79
2023/02/13 06:09:38;;;;;;;104.50;42.17;;;5.40;99.90;;;6.05;100.00;100096.81;5001307;28;21012;-82
2023/02/13 06:12:09;;;;;;;16.57;9.70;;;5.40;99.90;;;5.98;100.00;100100.78;5003115;28;20570;-79
2023/02/13 06:14:39;;;;;;;18.37;11.23;;;5.30;99.90;;;5.97;100.00;100104.28;5002816;28;20538;-79
2023/02/13 06:17:08;;;;;;;15.93;9.57;;;5.30;99.90;;;5.96;100.00;100107.84;5007275;28;20461;-80
2023/02/13 06:19:38;;;;;;;21.67;11.23;;;5.30;99.90;;;6.01;100.00;100110.94;5008074;28;20517;-79
2023/02/13 06:22:09;;;;;;;17.83;9.77;;;5.30;99.90;;;5.95;100.00;100103.59;5007364;28;20470;-79
2023/02/13 06:24:38;;;;;;;18.43;10.40;;;5.30;99.90;;;5.92;100.00;100106.41;5008057;28;20459;-79
2023/02/13 06:27:10;;;;;;;18.20;10.53;;;5.30;99.90;;;5.91;100.00;100106.50;5008122;28;20447;-79
2023/02/13 06:29:39;;;;;;;18.40;11.27;;;5.30;99.90;;;5.86;100.00;100116.38;5006109;28;20463;-79
2023/02/13 06:32:09;;;;;;;16.40;9.43;;;5.20;99.90;;;5.84;100.00;100116.44;5007185;28;21076;-79
2023/02/13 06:34:39;;;;;;;19.47;11.33;;;5.30;99.90;;;5.78;100.00;100116.03;5006769;28;20835;-79
2023/02/13 06:37:10;;;;;;;19.60;11.13;;;5.20;99.90;;;5.81;100.00;100118.41;5002539;28;20468;-79
2023/02/13 06:39:40;;;;;;;21.90;11.37;;;5.20;99.90;;;5.78;100.00;100118.63;5002267;28;20559;-79
2023/02/13 06:42:11;;;;;;;22.53;11.50;;;5.10;99.90;;;5.81;100.00;100123.59;5001759;28;20459;-78
2023/02/13 06:44:42;;;;;;;22.67;11.90;;;5.30;99.90;;;5.76;100.00;100126.50;5009818;28;20807;-79
2023/02/13 06:47:13;;;;;;;20.10;10.17;;;5.20;99.90;;;5.80;100.00;100121.94;5009446;28;21229;-80
2023/02/13 06:49:42;;;;;;;19.87;9.87;;;5.20;99.90;;;5.84;100.00;100131.19;5009190;28;20478;-79
2023/02/13 06:52:12;;;;;;;24.40;11.23;;;5.20;99.90;;;5.86;100.00;100131.97;5008653;28;21159;-79
2023/02/13 06:54:42;;;;;;;20.57;10.43;;;5.20;99.90;;;5.83;100.00;100134.72;5008378;28;20554;-80
2023/02/13 06:57:18;;;;;;;20.90;9.97;;;5.20;99.90;;;5.84;100.00;100139.81;5009271;28;21084;-80
2023/02/13 06:59:49;;;;;;;20.17;10.70;;;5.20;99.90;;;5.86;100.00;100142.34;5008111;28;20463;-79
2023/02/13 07:02:20;;;;;;;22.03;12.40;;;5.30;99.90;;;5.86;100.00;100139.75;5006307;28;20470;-79
2023/02/13 07:04:50;;;;;;;16.37;10.40;;;5.20;99.90;;;5.89;100.00;100142.13;5007596;28;20460;-80
2023/02/13 07:07:20;;;;;;;21.30;11.33;;;5.20;99.90;;;5.81;100.00;100139.19;5008410;28;20501;-79
2023/02/13 07:09:50;;;;;;;17.13;10.27;;;5.20;99.90;;;5.82;100.00;100135.66;5008196;28;20542;-79
2023/02/13 07:12:22;;;;;;;18.03;10.03;;;5.20;99.90;;;5.83;100.00;100137.34;5007019;28;21369;-80
2023/02/13 07:14:53;;;;;;;18.60;10.77;;;5.20;99.90;;;5.83;100.00;100137.34;5007911;28;20906;-79
2023/02/13 07:17:25;;;;;;;17.53;10.53;;;5.20;99.90;;;5.83;100.00;100134.72;5008029;28;20862;-79
2023/02/13 07:19:54;;;;;;;21.00;11.83;;;5.20;99.90;;;5.84;100.00;100136.38;5007256;28;20949;-79
2023/02/13 07:22:25;;;;;;;18.70;11.30;;;5.20;99.90;;;5.86;100.00;100131.97;5007349;28;20493;-80
2023/02/13 07:24:57;;;;;;;20.03;11.67;;;5.20;99.90;;;5.86;100.00;100137.16;5008973;28;20466;-80
2023/02/13 07:27:29;;;;;;;21.17;11.47;;;5.20;99.90;;;5.88;100.00;100136.09;5006707;28;20467;-79
2023/02/13 07:29:58;;;;;;;16.10;9.60;;;5.20;99.90;;;5.90;100.00;100141.19;5009029;28;20471;-79
2023/02/13 07:32:28;;;;;;;17.03;9.67;;;5.20;99.90;;;5.83;100.00;100137.34;5008044;28;20494;-79
2023/02/13 07:34:58;;;;;;;21.77;11.80;;;5.10;99.90;;;5.87;100.00;100139.63;5006139;28;20496;-79
2023/02/13 07:37:31;;;;;;;19.10;10.87;;;5.20;99.90;;;5.87;100.00;100139.63;5006921;28;20506;-79
2023/02/13 07:40:04;;;;;;;20.30;10.53;;;5.20;99.90;;;5.93;100.00;100146.19;5007878;28;20462;-80
2023/02/13 07:42:36;;;;;;;20.80;10.97;;;5.20;99.90;;;5.96;100.00;100140.75;5008970;28;20467;-79
2023/02/13 07:45:06;;;;;;;21.40;11.40;;;5.30;99.90;;;5.96;100.00;100148.56;5006939;28;20970;-79
2023/02/13 07:47:37;;;;;;;17.23;9.90;;;5.40;99.90;;;5.96;100.00;100143.38;5006552;28;20549;-79
2023/02/13 07:50:08;;;;;;;20.33;11.30;;;5.30;99.90;;;5.94;100.00;100140.84;5007955;28;20848;-79
2023/02/13 07:52:37;;;;;;;16.87;10.57;;;5.40;99.90;;;5.93;100.00;100146.19;5008269;28;20498;-79
2023/02/13 07:55:10;;;;;;;17.43;10.43;;;5.40;99.90;;;5.92;100.00;100139.31;5006089;28;21131;-80
2023/02/13 07:57:43;;;;;;;16.27;9.00;;;5.30;99.90;;;5.93;100.00;100138.38;5006743;28;20467;-79
2023/02/13 08:00:17;;;;;;;19.93;11.10;;;5.30;99.90;;;5.94;100.00;100140.03;5007065;28;20458;-79
2023/02/13 08:02:46;;;;;;;22.97;11.07;;;5.30;99.90;;;5.95;100.00;100139.94;5007130;28;20966;-79
2023/02/13 08:05:17;;;;;;;21.90;11.70;;;5.30;99.90;;;6.01;100.00;100146.44;5006499;28;20545;-79
2023/02/13 08:07:46;;;;;;;18.97;10.80;;;5.40;99.90;;;6.02;100.00;100140.34;5007299;28;20489;-79
2023/02/13 08:13:07;;;;;;;23.40;11.57;;;5.50;99.90;;;6.05;100.00;100134.91;5006214;28;20492;-79
2023/02/13 08:15:37;;;;;;;17.33;9.40;;;5.60;99.90;;;6.06;100.00;100124.44;5006820;28;20454;-80
2023/02/13 08:18:07;;;;;;;17.30;9.50;;;5.60;99.90;;;6.08;100.00;100132.09;5006766;28;20467;-79
2023/02/13 08:20:37;;;;;;;18.40;10.10;;;5.60;99.90;;;6.11;100.00;100131.88;5007948;28;20467;-80
2023/02/13 08:23:10;;;;;;;20.77;10.93;;;5.60;99.90;;;6.09;100.00;100128.59;5006198;28;20464;-79
2023/02/13 08:25:41;;;;;;;16.80;10.20;;;5.70;99.90;;;6.10;100.00;100127.66;5007449;28;20510;-79
2023/02/13 08:28:13;;;;;;;22.53;9.73;;;5.60;99.90;;;6.11;100.00;100126.69;5005805;28;20478;-79
2023/02/13 08:30:43;;;;;;;18.07;11.47;;;5.50;99.90;;;6.13;100.00;100132.63;5006780;28;20462;-79
2023/02/13 08:33:13;;;;;;;18.17;10.33;;;5.60;99.90;;;6.16;100.00;100126.38;5006955;28;20495;-79
2023/02/13 08:35:42;;;;;;;17.57;10.13;;;5.60;99.90;;;6.18;100.00;100133.13;5005755;28;20475;-80
2023/02/13 08:38:13;;;;;;;20.17;10.17;;;5.70;99.90;;;6.19;100.00;100129.59;5006013;28;20458;-80
2023/02/13 08:40:43;;;;;;;19.07;10.07;;;5.70;99.90;;;6.21;100.00;100138.13;5006059;28;20467;-79
2023/02/13 08:43:15;;;;;;;17.97;10.73;;;5.80;99.90;;;6.19;100.00;100129.59;5007703;28;20974;-79
2023/02/13 08:45:45;;;;;;;20.07;11.63;;;5.70;99.90;;;6.23;100.00;100131.03;5006412;28;20459;-79
2023/02/13 08:48:14;;;;;;;16.27;9.07;;;5.80;99.90;;;6.24;100.00;100132.72;5006728;28;20493;-80
2023/02/13 08:50:44;;;;;;;19.00;11.13;;;5.80;99.90;;;6.25;100.00;100131.75;5005763;28;20467;-79
2023/02/13 08:53:13;;;;;;;21.43;11.07;;;5.80;99.90;;;6.22;100.00;100129.38;5006225;28;20501;-79
2023/02/13 08:55:51;;;;;;;20.57;11.47;;;5.70;99.90;;;6.28;100.00;100128.94;5006267;28;20450;-80
2023/02/13 08:58:23;;;;;;;20.80;10.80;;;5.90;99.90;;;6.26;100.00;100130.81;5004178;28;20465;-79
2023/02/13 09:00:53;;;;;;;20.00;10.10;;;5.90;99.90;;;6.27;100.00;100122.09;5006709;28;21306;-79
2023/02/13 09:03:23;;;;;;;17.13;10.03;;;5.90;99.90;;;6.28;100.00;100131.53;5005299;28;20471;-80
2023/02/13 09:05:54;;;;;;;19.30;11.40;;;5.90;99.90;;;6.29;100.00;100125.41;5006150;28;20473;-79
2023/02/13 09:08:25;;;;;;;18.40;9.60;;;5.90;99.90;;;6.33;100.00;100126.84;5006010;28;20815;-79
2023/02/13 09:11:00;;;;;;;23.10;12.30;;;6.00;99.90;;;6.32;100.00;100129.56;5007389;28;20470;-79
2023/02/13 09:13:33;;;;;;;18.97;10.37;;;6.00;99.90;;;6.31;100.00;100128.75;5005479;28;20525;-79
2023/02/13 09:16:05;;;;;;;22.23;10.63;;;6.00;99.90;;;6.29;100.00;100128.00;5006500;28;20462;-79
2023/02/13 09:18:35;;;;;;;18.60;10.83;;;5.80;99.90;;;6.34;100.00;100138.09;5005958;28;20474;-79
2023/02/13 09:21:08;;;;;;;20.80;11.93;;;5.80;99.90;;;6.36;100.00;100137.03;5006649;28;20965;-79
2023/02/13 09:23:40;;;;;;;16.73;9.73;;;5.80;99.90;;;6.40;100.00;100138.47;5005839;28;20517;-79
2023/02/13 09:26:13;;;;;;;23.33;11.13;;;5.90;99.90;;;6.42;100.00;100141.78;5006497;28;20467;-79
2023/02/13 09:28:45;;;;;;;18.57;11.43;;;5.90;99.90;;;6.47;100.00;100134.50;5006491;28;20470;-79
2023/02/13 09:31:18;;;;;;;18.90;10.20;;;6.00;99.90;;;6.53;100.00;100147.06;5005293;28;20459;-79
2023/02/13 09:33:50;;;;;;;24.23;9.90;;;6.00;99.90;;;6.55;100.00;100134.78;5004955;28;20498;-79
2023/02/13 09:36:22;;;;;;;19.57;10.07;;;6.00;99.90;;;6.62;100.00;100136.94;5005752;28;20841;-79
2023/02/13 09:38:56;;;;;;;19.50;11.03;;;6.10;99.90;;;6.64;100.00;100142.84;5007006;28;20462;-79
2023/02/13 09:41:30;;;;;;;17.20;10.53;;;6.10;99.90;;;6.67;100.00;100134.84;5005294;28;20568;-79
2023/02/13 09:44:10;;;;;;;20.57;11.63;;;6.10;99.90;;;6.69;100.00;100136.41;5005264;28;20471;-79
2023/02/13 09:46:42;;;;;;;20.03;9.53;;;6.10;99.90;;;6.70;100.00;100137.22;5004824;28;20517;-79
2023/02/13 09:49:23;;;;;;;17.67;9.70;;;6.20;99.90;;;6.69;100.00;100138.16;5004331;28;20517;-79
2023/02/13 09:51:58;;;;;;;17.30;10.73;;;6.10;99.90;;;6.67;100.00;100130.47;5008174;28;20560;-79
2023/02/13 09:54:31;;;;;;;18.37;11.17;;;6.20;99.90;;;6.64;100.00;100138.50;5010769;28;20463;-79
2023/02/13 09:57:08;;;;;;;19.83;10.83;;;6.10;99.90;;;6.64;100.00;100141.09;5010099;28;20465;-79
2023/02/13 09:59:57;;;;;;;20.77;10.13;;;6.10;99.90;;;6.67;100.00;100145.22;5008092;28;20470;-79
2023/02/13 10:03:00;;;;;;;21.43;10.27;;;6.20;99.90;;;6.58;100.00;100133.75;5009121;28;20475;-79
2023/02/13 10:05:46;;;;;;;22.27;9.40;;;6.10;99.90;;;6.58;100.00;100133.75;5008514;28;21190;-79
2023/02/13 10:08:41;;;;;;;16.93;10.30;;;6.10;99.90;;;6.60;100.00;100139.66;5010031;28;20463;-79
2023/02/13 10:11:32;;;;;;;18.40;10.37;;;6.00;99.90;;;6.55;100.00;100142.59;5009652;28;20876;-79
2023/02/13 10:14:15;;;;;;;15.87;8.57;;;6.00;99.90;;;6.59;100.00;100135.41;5007210;28;20544;-79
2023/02/13 10:16:53;;;;;;;17.40;10.40;;;6.00;99.90;;;6.59;100.00;100136.22;5010250;28;20517;-80
2023/02/13 10:19:40;;;;;;;17.73;9.00;;;6.00;99.90;;;6.61;100.00;100140.47;5009154;28;20463;-79
2023/02/13 10:22:16;;;;;;;18.47;9.37;;;6.00;99.90;;;6.61;100.00;100137.88;5009305;28;20462;-79
2023/02/13 10:24:52;;;;;;;17.10;10.23;;;6.10;99.90;;;6.62;100.00;100137.78;5009271;28;20482;-79
2023/02/13 10:27:24;;;;;;;16.17;8.93;;;6.10;99.90;;;6.65;100.00;100128.94;5010028;28;20467;-79
2023/02/13 10:30:22;;;;;;;16.93;9.30;;;6.10;99.90;;;6.70;100.00;100134.63;5009720;28;20467;-79
2023/02/13 10:33:19;;;;;;;15.63;9.13;;;6.10;99.90;;;6.72;100.00;100133.56;5009927;28;20846;-79
2023/02/13 10:36:00;;;;;;;18.40;9.23;;;6.10;99.90;;;6.76;100.00;100128.97;5008244;28;20486;-79
2023/02/13 10:38:34;;;;;;;17.03;8.87;;;6.20;99.90;;;6.77;100.00;100128.84;5009549;28;20466;-80
2023/02/13 10:41:21;;;;;;;15.90;8.97;;;6.20;99.90;;;6.78;100.00;100130.53;5008464;28;20969;-79
2023/02/13 10:44:12;;;;;;;18.27;8.73;;;6.20;99.90;;;6.80;100.00;100125.22;5009437;28;20550;-79
2023/02/13 10:47:00;;;;;;;17.60;8.30;;;6.10;99.90;;;6.85;100.00;100130.91;5008807;28;20977;-79
2023/02/13 10:49:57;;;;;;;15.97;8.60;;;6.40;99.90;;;6.86;100.00;100119.56;5008243;28;20566;-79
2023/02/13 10:52:45;;;;;;;17.20;8.30;;;6.40;99.90;;;6.87;100.00;100122.03;5007515;28;20475;-79
2023/02/13 10:55:49;;;;;;;16.77;9.03;;;6.40;99.90;;;6.93;100.00;100115.56;5009406;28;20576;-79
2023/02/13 10:58:30;;;;;;;14.97;8.20;;;6.40;99.90;;;6.96;100.00;100123.97;5008875;28;20462;-79
2023/02/13 11:01:09;;;;;;;15.40;8.67;;;6.50;99.90;;;6.99;100.00;100115.13;5008340;28;20549;-79
2023/02/13 11:03:39;;;;;;;15.57;8.87;;;6.50;99.90;;;6.99;100.00;100110.75;5008491;28;20465;-79
2023/02/13 11:06:19;;;;;;;14.67;8.60;;;6.50;99.90;;;7.05;100.00;100114.66;5008258;28;20863;-79
2023/02/13 11:08:49;;;;;;;12.83;8.10;;;6.50;99.90;;;7.08;100.00;100109.22;5008151;28;20455;-79
2023/02/13 11:11:33;;;;;;;17.87;9.10;;;6.60;99.90;;;7.12;100.00;100104.63;5007901;28;20458;-79
2023/02/13 11:14:16;;;;;;;17.53;9.80;;;6.60;99.90;;;7.17;100.00;100107.72;5008997;28;21012;-79
2023/02/13 11:16:56;;;;;;;14.90;8.00;;;6.60;99.90;;;7.21;100.00;100094.38;5007863;28;20463;-79
2023/02/13 11:19:32;;;;;;;17.73;8.03;;;6.70;99.90;;;7.26;100.00;100097.44;5008257;28;20461;-80
2023/02/13 11:22:11;;;;;;;15.77;8.70;;;6.80;99.90;;;7.31;100.00;100097.13;5008319;28;20470;-79
2023/02/13 11:24:51;;;;;;;14.13;8.00;;;6.90;99.90;;;7.34;100.00;100089.91;5012071;28;20467;-79